Time;durP1;ratioP1;P1;durP2;ratioP2;P2;SDS_P1;SDS_P2;PMS_P1;PMS_P2;Temp;Humidity;BMP_temperature;BMP_pressure;BME280_temperature;BME280_humidity;BME280_pressure;Samples;Min_cycle;Max_cycle;Signal;HPM_P1;HPM_P2
2023/04/05 00:01:12;;;;;;;8.55;4.13;;;;;;;3.31;59.91;100641.28;5004908;28;20052;-86
2023/04/05 00:03:41;;;;;;;6.95;3.83;;;;;;;3.23;60.09;100632.00;4999545;28;20496;-86
2023/04/05 00:06:11;;;;;;;9.00;4.00;;;;;;;3.13;60.53;100629.84;4996988;28;20053;-87
2023/04/05 00:08:39;;;;;;;9.27;4.20;;;;;;;3.21;60.91;100639.09;5007543;28;20436;-85
2023/04/05 00:11:05;;;;;;;7.32;3.85;;;;;;;3.24;59.85;100630.22;5016457;28;20125;-86
2023/04/05 00:13:32;;;;;;;9.80;4.47;;;;;;;3.18;59.90;100620.88;4999458;28;20061;-86
2023/04/05 00:15:59;;;;;;;6.38;3.95;;;;;;;3.17;60.34;100626.19;5005449;28;20038;-87
2023/04/05 00:18:27;;;;;;;6.70;4.00;;;;;;;3.15;60.60;100618.34;4999478;28;20053;-86
2023/04/05 00:20:53;;;;;;;9.98;4.50;;;;;;;3.09;60.76;100620.44;5016269;28;20041;-86
2023/04/05 00:23:21;;;;;;;8.23;4.25;;;;;;;3.12;60.40;100615.88;5015303;28;20086;-87
2023/04/05 00:25:48;;;;;;;13.73;4.80;;;;;;;3.11;59.83;100619.44;4994785;28;20038;-87
2023/04/05 00:28:16;;;;;;;8.43;4.65;;;;;;;3.09;59.96;100623.91;5028279;28;20112;-86
2023/04/05 00:30:43;;;;;;;12.40;4.95;;;;;;;3.12;60.86;100615.03;4990105;28;20054;-85
2023/04/05 00:33:11;;;;;;;6.63;4.05;;;;;;;3.05;60.88;100617.06;4969208;28;20496;-86
2023/04/05 00:35:38;;;;;;;9.45;4.85;;;;;;;3.06;60.91;100612.69;4987309;28;20056;-87
2023/04/05 00:38:05;;;;;;;7.47;4.00;;;;;;;3.11;60.52;100611.56;4982532;28;20046;-87
2023/04/05 00:40:32;;;;;;;11.90;4.38;;;;;;;2.94;61.62;100603.59;5013559;28;20060;-87
2023/04/05 00:42:58;;;;;;;10.85;4.93;;;;;;;2.93;61.74;100599.28;4999526;28;20115;-86
2023/04/05 00:45:26;;;;;;;8.00;4.53;;;;;;;3.03;61.36;100604.03;4971431;28;20057;-85
2023/04/05 00:47:53;;;;;;;9.38;4.40;;;;;;;2.99;61.59;100612.09;4988778;28;20716;-87
2023/04/05 00:50:20;;;;;;;8.38;4.72;;;;;;;2.99;61.47;100599.00;4983789;28;20056;-87
2023/04/05 00:52:48;;;;;;;8.90;5.10;;;;;;;2.88;61.50;100604.72;5014038;28;20056;-86
2023/04/05 00:55:16;;;;;;;10.20;5.07;;;;;;;2.90;61.51;100595.03;4993802;28;20041;-86
2023/04/05 00:57:44;;;;;;;9.15;4.65;;;;;;;2.90;62.07;100592.41;4989523;28;20046;-86
2023/04/05 01:00:11;;;;;;;12.55;5.25;;;;;;;2.90;61.58;100594.13;4967308;28;20524;-86
2023/04/05 01:02:44;;;;;;;9.18;4.70;;;;;;;2.89;61.92;100595.06;5001181;28;20456;-86
2023/04/05 01:05:37;;;;;;;10.32;4.75;;;;;;;2.89;61.51;100590.66;5028219;28;20046;-86
2023/04/05 01:08:11;;;;;;;10.02;4.55;;;;;;;2.85;62.31;100589.13;5002326;28;20050;-86
2023/04/05 01:10:43;;;;;;;8.48;5.07;;;;;;;2.76;61.68;100579.88;5013125;28;20112;-87
2023/04/05 01:13:10;;;;;;;11.80;5.22;;;;;;;2.82;61.70;100577.00;4996556;28;20049;-87
2023/04/05 01:15:37;;;;;;;9.75;5.60;;;;;;;2.77;62.08;100581.59;4984971;28;20076;-87
2023/04/05 01:18:04;;;;;;;13.88;5.05;;;;;;;2.75;61.99;100578.19;4979755;28;20124;-86
2023/04/05 01:20:39;;;;;;;11.05;5.13;;;;;;;2.83;61.31;100573.44;5024023;28;20708;-86
2023/04/05 01:23:36;;;;;;;9.73;5.00;;;;;;;2.68;62.30;100570.66;4995922;28;20498;-86
2023/04/05 01:26:31;;;;;;;13.25;5.38;;;;;;;2.76;62.35;100572.00;4997981;28;20046;-87
2023/04/05 01:29:26;;;;;;;12.13;5.13;;;;;;;2.73;62.65;100566.91;5010925;28;20157;-86
2023/04/05 01:32:09;;;;;;;10.38;5.22;;;;;;;2.73;61.13;100571.31;5001420;28;20038;-87
2023/04/05 01:34:46;;;;;;;9.88;5.53;;;;;;;2.59;62.75;100567.50;4994789;28;20048;-86
2023/04/05 01:37:15;;;;;;;12.73;5.25;;;;;;;2.61;62.85;100567.44;5012650;28;20523;-86
2023/04/05 01:39:42;;;;;;;8.27;4.90;;;;;;;2.72;62.12;100559.97;4997536;28;20072;-86
2023/04/05 01:42:09;;;;;;;9.35;5.00;;;;;;;2.62;62.79;100566.53;4983746;28;20034;-86
2023/04/05 01:44:35;;;;;;;8.63;4.63;;;;;;;2.65;62.80;100568.19;4980588;28;20045;-86
2023/04/05 01:47:02;;;;;;;7.20;4.60;;;;;;;2.59;63.03;100566.66;4994138;28;20060;-86
2023/04/05 01:49:29;;;;;;;8.95;4.75;;;;;;;2.57;63.16;100558.88;5004023;28;20041;-86
2023/04/05 01:51:56;;;;;;;8.23;4.30;;;;;;;2.65;62.72;100561.16;4996466;28;20128;-86
2023/04/05 01:54:22;;;;;;;13.20;4.82;;;;;;;2.60;62.92;100560.50;5012504;28;20052;-87
2023/04/05 01:56:49;;;;;;;10.23;4.90;;;;;;;2.56;63.34;100566.78;4997526;28;21775;-86
2023/04/05 01:59:17;;;;;;;9.90;4.90;;;;;;;2.64;62.55;100566.44;5003517;28;20990;-86
2023/04/05 02:01:44;;;;;;;6.22;4.15;;;;;;;2.56;63.40;100558.94;4988601;28;20485;-86
2023/04/05 02:04:11;;;;;;;11.07;4.97;;;;;;;2.62;63.11;100566.53;5010576;28;20046;-86
2023/04/05 02:06:38;;;;;;;9.43;5.03;;;;;;;2.51;63.79;100564.34;4996970;28;20049;-86
2023/04/05 02:09:06;;;;;;;8.98;4.45;;;;;;;2.50;63.59;100557.44;4998376;28;20133;-86
2023/04/05 02:11:33;;;;;;;8.63;4.32;;;;;;;2.52;63.46;100552.97;4967339;28;20120;-86
2023/04/05 02:14:00;;;;;;;10.77;4.93;;;;;;;2.49;63.65;100555.69;5012293;28;20385;-86
2023/04/05 02:16:26;;;;;;;9.35;4.75;;;;;;;2.46;63.71;100549.75;5012789;28;20068;-86
2023/04/05 02:18:56;;;;;;;9.35;5.25;;;;;;;2.48;63.37;100551.41;4998342;28;20049;-85
2023/04/05 02:21:24;;;;;;;7.97;5.05;;;;;;;2.36;63.84;100546.69;5016216;28;20091;-87
2023/04/05 02:23:53;;;;;;;9.68;4.85;;;;;;;2.43;64.10;100544.66;5013869;28;20073;-86
2023/04/05 02:26:20;;;;;;;12.77;4.72;;;;;;;2.41;64.14;100538.63;5022913;28;20518;-86
2023/04/05 02:28:46;;;;;;;9.27;5.43;;;;;;;2.42;64.08;100541.19;4990507;28;20046;-86
2023/04/05 02:31:13;;;;;;;7.55;4.28;;;;;;;2.34;64.48;100540.63;4969876;28;20056;-87
2023/04/05 02:33:41;;;;;;;10.70;5.50;;;;;;;2.38;64.27;100550.94;5000462;28;20115;-86
2023/04/05 02:36:10;;;;;;;8.27;4.95;;;;;;;2.29;64.61;100542.59;4999906;28;20092;-85
2023/04/05 02:38:37;;;;;;;8.25;4.45;;;;;;;2.29;64.46;100542.59;5014664;28;20041;-86
2023/04/05 02:41:08;;;;;;;10.18;5.40;;;;;;;2.22;64.25;100536.81;5003109;28;20042;-86
2023/04/05 02:43:37;;;;;;;9.88;5.13;;;;;;;2.22;64.34;100536.81;4982566;28;20053;-87
2023/04/05 02:46:04;;;;;;;8.15;4.40;;;;;;;2.27;64.36;100534.00;5027323;28;20444;-86
2023/04/05 02:48:36;;;;;;;7.45;4.60;;;;;;;2.26;64.55;100542.75;5011073;28;20151;-86
2023/04/05 02:51:03;;;;;;;13.07;4.95;;;;;;;2.21;64.24;100542.09;4987564;28;20077;-86
2023/04/05 02:53:30;;;;;;;9.95;4.72;;;;;;;2.22;64.61;100546.44;5002757;28;20041;-87
2023/04/05 02:56:00;;;;;;;8.27;4.80;;;;;;;2.23;64.47;100538.50;5009085;28;20067;-85
2023/04/05 02:58:29;;;;;;;7.22;4.55;;;;;;;2.21;64.70;100531.59;5017859;28;20115;-86
2023/04/05 03:00:56;;;;;;;5.95;4.40;;;;;;;2.12;64.74;100533.72;4996994;28;20104;-86
2023/04/05 03:03:29;;;;;;;10.75;5.13;;;;;;;2.06;65.13;100530.47;5007760;28;20045;-86
2023/04/05 03:06:12;;;;;;;5.90;4.43;;;;;;;2.02;64.80;100529.78;5015617;28;20520;-86
2023/04/05 03:08:47;;;;;;;11.75;4.80;;;;;;;1.99;64.69;100529.91;4961960;28;20058;-86
2023/04/05 03:11:25;;;;;;;7.38;4.78;;;;;;;2.11;64.48;100525.91;5006997;28;20050;-85
2023/04/05 03:13:56;;;;;;;7.47;4.72;;;;;;;2.11;64.93;100532.03;5013296;28;20505;-86
2023/04/05 03:16:33;;;;;;;9.80;4.97;;;;;;;2.17;64.61;100531.75;4995821;28;20064;-86
2023/04/05 03:19:06;;;;;;;9.00;4.28;;;;;;;2.09;64.42;100522.53;4983770;28;20516;-84
2023/04/05 03:21:36;;;;;;;5.60;4.18;;;;;;;2.14;64.46;100517.94;4997668;28;20821;-85
2023/04/05 03:24:10;;;;;;;7.18;4.20;;;;;;;2.06;64.16;100512.16;5013936;28;20045;-85
2023/04/05 03:26:40;;;;;;;8.43;4.90;;;;;;;2.10;63.88;100519.81;4991059;28;20396;-85
2023/04/05 03:29:07;;;;;;;9.02;4.78;;;;;;;2.05;63.84;100518.31;5003295;28;20053;-86
2023/04/05 03:31:36;;;;;;;8.65;4.65;;;;;;;2.02;64.29;100518.47;4991945;28;20676;-85
2023/04/05 03:34:06;;;;;;;8.70;4.35;;;;;;;1.92;64.54;100521.44;5002698;28;20057;-85
2023/04/05 03:36:41;;;;;;;8.60;4.65;;;;;;;1.92;64.54;100520.59;4999463;28;20050;-85
2023/04/05 03:39:19;;;;;;;5.88;4.07;;;;;;;1.91;63.87;100516.28;5016174;28;20054;-86
2023/04/05 03:41:47;;;;;;;5.90;4.50;;;;;;;2.03;63.61;100530.63;4987873;28;20378;-85
2023/04/05 03:44:14;;;;;;;6.78;3.97;;;;;;;2.13;63.53;100529.31;5004606;28;20048;-85
2023/04/05 03:46:41;;;;;;;7.05;4.50;;;;;;;2.08;63.51;100523.41;4974038;28;20064;-86
2023/04/05 03:49:08;;;;;;;6.50;4.68;;;;;;;2.04;63.58;100532.34;4992026;28;20163;-86
2023/04/05 03:51:45;;;;;;;5.63;4.35;;;;;;;2.06;62.58;100527.88;4977984;28;20041;-85
2023/04/05 03:54:12;;;;;;;8.75;4.65;;;;;;;1.93;62.74;100525.78;5029687;28;20038;-87
2023/04/05 03:56:41;;;;;;;7.07;4.57;;;;;;;1.94;62.85;100514.38;4991021;28;20088;-88
2023/04/05 03:59:12;;;;;;;6.85;3.67;;;;;;;1.99;63.12;100523.84;4961969;28;20050;-87
2023/04/05 04:01:39;;;;;;;7.60;4.80;;;;;;;1.92;63.11;100534.53;4989116;28;20042;-88
2023/04/05 04:04:07;;;;;;;6.85;4.93;;;;;;;1.92;63.36;100520.59;4983939;28;20049;-88
2023/04/05 04:06:37;;;;;;;8.20;4.50;;;;;;;1.83;63.97;100527.09;4993004;28;20053;-87
2023/04/05 04:09:04;;;;;;;6.47;4.35;;;;;;;1.78;64.13;100525.53;5004575;28;20042;-89
2023/04/05 04:11:31;;;;;;;7.47;4.50;;;;;;;1.73;64.36;100521.38;4997905;28;20056;-87
2023/04/05 04:14:01;;;;;;;7.07;4.05;;;;;;;1.71;64.80;100519.72;5013630;28;20635;-88
2023/04/05 04:16:42;;;;;;;8.80;4.53;;;;;;;1.74;64.62;100517.81;4988097;28;20044;-85
2023/04/05 04:19:42;;;;;;;8.88;4.20;;;;;;;1.68;65.12;100523.31;5008814;28;20542;-89
2023/04/05 04:22:32;;;;;;;9.18;4.68;;;;;;;1.66;64.91;100516.44;5007669;28;20045;-87
2023/04/05 04:25:29;;;;;;;8.57;4.72;;;;;;;1.72;65.21;100519.66;4999418;28;20049;-85
2023/04/05 04:28:18;;;;;;;7.47;4.25;;;;;;;1.61;65.77;100516.63;5011234;28;20092;-86
2023/04/05 04:31:13;;;;;;;9.30;5.07;;;;;;;1.68;65.15;100518.09;5005194;28;20042;-85
2023/04/05 04:34:12;;;;;;;6.10;4.20;;;;;;;1.61;65.44;100515.78;4982852;28;20053;-85
2023/04/05 04:37:06;;;;;;;13.30;4.88;;;;;;;1.65;65.01;100523.41;5011190;28;20052;-86
2023/04/05 04:39:53;;;;;;;7.00;4.22;;;;;;;1.56;65.10;100529.03;4978849;28;20045;-85
2023/04/05 04:42:57;;;;;;;7.05;5.07;;;;;;;1.57;65.29;100524.66;4973676;28;20046;-85
2023/04/05 04:45:53;;;;;;;10.77;7.13;;;;;;;1.52;65.50;100523.06;4994210;28;20500;-85
2023/04/05 04:48:33;;;;;;;8.77;4.97;;;;;;;1.58;65.57;100522.00;5002381;28;20060;-83
2023/04/05 04:51:18;;;;;;;8.75;5.20;;;;;;;1.60;65.18;100517.53;5020062;28;20065;-83
2023/04/05 04:53:45;;;;;;;9.02;5.70;;;;;;;1.59;63.82;100528.06;5000537;28;20057;-83
2023/04/05 04:56:12;;;;;;;9.93;5.53;;;;;;;1.60;64.69;100525.38;5004080;28;20049;-83
2023/04/05 04:58:39;;;;;;;8.60;5.30;;;;;;;1.59;64.44;100523.69;5024475;28;20404;-83
2023/04/05 05:01:11;;;;;;;8.90;4.82;;;;;;;1.59;64.96;100526.31;4979115;28;20052;-83
2023/04/05 05:03:38;;;;;;;10.15;5.55;;;;;;;1.59;64.93;100523.69;4982633;28;20045;-83
2023/04/05 05:06:05;;;;;;;8.60;4.68;;;;;;;1.61;64.50;100519.25;5027743;28;20504;-84
2023/04/05 05:08:33;;;;;;;7.85;4.53;;;;;;;1.55;65.53;100523.88;4986264;28;20054;-83
2023/04/05 05:11:00;;;;;;;11.32;5.13;;;;;;;1.55;66.19;100531.72;5017425;28;20532;-83
2023/04/05 05:13:27;;;;;;;8.50;4.95;;;;;;;1.54;66.26;100530.88;5015378;28;20060;-83
2023/04/05 05:15:54;;;;;;;11.25;5.43;;;;;;;1.53;66.09;100531.78;5011706;28;20382;-83
2023/04/05 05:18:23;;;;;;;8.65;5.07;;;;;;;1.55;66.02;100536.94;4997308;28;20049;-83
2023/04/05 05:20:51;;;;;;;8.88;4.90;;;;;;;1.46;67.17;100532.94;5009461;28;20065;-82
2023/04/05 05:23:20;;;;;;;8.52;5.90;;;;;;;1.52;65.93;100536.16;4987338;28;20844;-83
2023/04/05 05:25:46;;;;;;;7.82;5.28;;;;;;;1.53;66.47;100531.78;5000355;28;20045;-83
2023/04/05 05:28:15;;;;;;;7.43;5.40;;;;;;;1.58;66.59;100534.19;4992972;28;20053;-83
2023/04/05 05:30:42;;;;;;;10.60;4.97;;;;;;;1.62;65.88;100530.56;5007533;28;20076;-82
2023/04/05 05:33:09;;;;;;;10.13;5.63;;;;;;;1.56;66.65;100536.06;5021679;28;20505;-84
2023/04/05 05:35:36;;;;;;;9.07;5.30;;;;;;;1.57;66.66;100527.28;5017900;28;20082;-83
2023/04/05 05:38:03;;;;;;;11.52;5.72;;;;;;;1.62;66.05;100535.78;5020642;28;20045;-83
2023/04/05 05:40:33;;;;;;;9.82;5.00;;;;;;;1.78;64.29;100522.94;4993285;28;20056;-83
2023/04/05 05:42:59;;;;;;;10.77;5.57;;;;;;;1.84;64.61;100533.16;4998031;28;20628;-83
2023/04/05 05:45:26;;;;;;;9.27;4.85;;;;;;;1.85;64.17;100527.84;5006791;28;20046;-83
2023/04/05 05:47:53;;;;;;;8.60;4.60;;;;;;;1.85;63.86;100534.84;4996962;28;20139;-82
2023/04/05 05:50:19;;;;;;;11.25;5.22;;;;;;;1.85;63.61;100530.47;5028079;28;20071;-83
2023/04/05 05:52:46;;;;;;;7.82;5.45;;;;;;;1.97;63.45;100528.28;5029104;28;20069;-83
2023/04/05 05:55:13;;;;;;;7.40;4.85;;;;;;;2.03;63.49;100535.84;5025537;28;20084;-83
2023/04/05 05:57:40;;;;;;;7.93;5.00;;;;;;;2.07;63.36;100527.81;5009038;28;20046;-83
2023/04/05 06:00:08;;;;;;;9.15;5.07;;;;;;;2.09;64.01;100527.75;5013183;28;20555;-83
2023/04/05 06:02:38;;;;;;;7.53;4.80;;;;;;;2.24;63.09;100532.34;4993088;28;20057;-83
2023/04/05 06:05:05;;;;;;;12.48;6.45;;;;;;;2.27;62.88;100537.44;5011933;28;20054;-83
2023/04/05 06:07:35;;;;;;;11.63;6.57;;;;;;;2.30;62.56;100539.94;5023268;28;20053;-83
2023/04/05 06:10:03;;;;;;;13.45;6.50;;;;;;;2.31;62.92;100530.28;4991693;28;20041;-83
2023/04/05 06:12:29;;;;;;;13.95;6.65;;;;;;;2.29;62.70;100534.75;5009692;28;20108;-82
2023/04/05 06:14:56;;;;;;;11.43;6.47;;;;;;;2.37;62.33;100536.13;4997777;28;20057;-83
2023/04/05 06:17:23;;;;;;;11.68;6.20;;;;;;;2.38;62.58;100540.44;5019893;28;20493;-82
2023/04/05 06:19:50;;;;;;;11.05;5.85;;;;;;;2.53;61.50;100535.47;4997780;28;20052;-83
2023/04/05 06:22:17;;;;;;;14.50;6.78;;;;;;;2.56;61.79;100535.31;4991068;28;20530;-83
2023/04/05 06:24:44;;;;;;;9.68;6.30;;;;;;;2.65;61.23;100534.09;5019594;28;20045;-83
2023/04/05 06:27:13;;;;;;;13.73;6.35;;;;;;;2.68;61.07;100545.28;5006200;28;20486;-83
2023/04/05 06:29:40;;;;;;;11.10;6.47;;;;;;;2.72;60.67;100546.84;5011571;28;20056;-83
2023/04/05 06:32:07;;;;;;;15.82;5.65;;;;;;;2.87;59.61;100544.44;5010191;28;20071;-83
2023/04/05 06:34:33;;;;;;;9.52;6.07;;;;;;;2.86;58.84;100540.97;4998791;28;20053;-83
2023/04/05 06:37:01;;;;;;;7.32;5.55;;;;;;;2.87;57.50;100536.56;4991475;28;20045;-83
2023/04/05 06:39:28;;;;;;;9.07;4.82;;;;;;;2.98;57.78;100540.44;5008990;28;20049;-83
2023/04/05 06:41:55;;;;;;;8.80;7.05;;;;;;;2.91;56.70;100538.16;5026212;28;20050;-83
2023/04/05 06:44:26;;;;;;;9.05;6.28;;;;;;;2.93;56.61;100539.78;4977185;28;20508;-83
2023/04/05 06:46:53;;;;;;;12.63;6.18;;;;;;;3.08;57.47;100542.59;4979566;28;20042;-83
2023/04/05 06:49:20;;;;;;;10.85;5.38;;;;;;;2.99;56.65;100541.28;5009304;28;20061;-83
2023/04/05 06:51:48;;;;;;;9.75;6.32;;;;;;;3.14;56.95;100537.94;5011773;28;20052;-83
2023/04/05 06:54:15;;;;;;;8.20;6.13;;;;;;;3.09;56.72;100536.47;5026680;28;20061;-83
2023/04/05 06:56:42;;;;;;;9.55;5.97;;;;;;;3.12;56.60;100538.94;5008411;28;20045;-83
2023/04/05 06:59:08;;;;;;;8.77;6.25;;;;;;;3.25;56.85;100537.44;4991991;28;20087;-83
2023/04/05 07:01:35;;;;;;;10.43;6.05;;;;;;;3.11;56.06;100532.84;4979583;28;20054;-83
2023/04/05 07:04:02;;;;;;;8.32;6.03;;;;;;;3.22;56.13;100530.56;4981218;28;20048;-83
2023/04/05 07:06:30;;;;;;;8.90;6.07;;;;;;;3.22;56.39;100527.94;4954969;28;20146;-83
2023/04/05 07:08:57;;;;;;;10.23;5.75;;;;;;;3.25;56.34;100532.19;5012557;28;20049;-83
2023/04/05 07:11:24;;;;;;;11.32;6.63;;;;;;;3.23;56.39;100529.66;5007067;28;20052;-83
2023/04/05 07:13:50;;;;;;;9.80;6.47;;;;;;;3.36;57.00;100522.03;5002529;28;20053;-83
2023/04/05 07:16:21;;;;;;;9.07;6.20;;;;;;;3.39;56.53;100516.66;5023063;28;20116;-83
2023/04/05 07:18:50;;;;;;;10.80;6.10;;;;;;;3.39;57.03;100521.91;4974868;28;20059;-83
2023/04/05 07:21:16;;;;;;;7.68;5.85;;;;;;;3.40;56.34;100528.00;5001210;28;20050;-83
2023/04/05 07:23:43;;;;;;;9.70;5.65;;;;;;;3.29;56.33;100520.63;5011439;28;20056;-83
2023/04/05 07:26:11;;;;;;;8.45;5.75;;;;;;;3.35;56.92;100519.47;5012564;28;20489;-83
2023/04/05 07:28:37;;;;;;;9.98;6.60;;;;;;;3.37;57.18;100522.88;5025732;28;20096;-83
2023/04/05 07:31:05;;;;;;;8.30;5.65;;;;;;;3.43;56.14;100522.59;4998010;28;20127;-82
2023/04/05 07:33:33;;;;;;;9.80;6.15;;;;;;;3.45;56.61;100518.13;4978557;28;20515;-83
2023/04/05 07:35:59;;;;;;;13.85;6.22;;;;;;;3.44;57.19;100519.91;5023953;28;20407;-83
2023/04/05 07:38:27;;;;;;;10.85;5.43;;;;;;;3.42;57.38;100513.88;5022724;28;20053;-83
2023/04/05 07:40:55;;;;;;;11.02;5.55;;;;;;;3.54;57.08;100512.44;5000590;28;20373;-83
2023/04/05 07:43:24;;;;;;;8.35;5.47;;;;;;;3.58;56.88;100523.63;4984851;28;20516;-83
2023/04/05 07:45:52;;;;;;;10.55;5.43;;;;;;;3.55;56.66;100514.13;4981057;28;20037;-84
2023/04/05 07:48:19;;;;;;;11.52;5.82;;;;;;;3.60;56.69;100517.38;4982356;28;20046;-83
2023/04/05 07:50:47;;;;;;;7.80;4.68;;;;;;;3.68;56.63;100520.47;4995808;28;20473;-83
2023/04/05 07:53:14;;;;;;;10.20;6.25;;;;;;;3.70;57.18;100521.25;5010784;28;20045;-83
2023/04/05 07:55:41;;;;;;;8.27;5.18;;;;;;;3.73;56.48;100522.03;5018124;28;20038;-83
2023/04/05 07:58:09;;;;;;;9.20;5.35;;;;;;;3.79;56.44;100519.09;4993163;28;20042;-83
2023/04/05 08:00:36;;;;;;;8.57;5.30;;;;;;;3.79;56.17;100519.09;5004888;28;20068;-84
2023/04/05 08:03:03;;;;;;;10.80;5.82;;;;;;;3.86;56.32;100528.38;5024544;28;20049;-83
2023/04/05 08:05:30;;;;;;;9.90;5.30;;;;;;;3.93;56.81;100519.28;4983598;28;20501;-82
2023/04/05 08:07:57;;;;;;;8.70;5.22;;;;;;;3.96;56.46;100521.75;4977489;28;20037;-83
2023/04/05 08:10:24;;;;;;;8.40;5.38;;;;;;;3.98;56.47;100512.00;5009752;28;20403;-83
2023/04/05 08:12:51;;;;;;;8.98;5.22;;;;;;;4.05;56.69;100517.81;5011352;28;22844;-83
2023/04/05 08:15:18;;;;;;;8.55;5.07;;;;;;;4.13;57.24;100515.66;5012707;28;20064;-83
2023/04/05 08:17:45;;;;;;;12.07;6.18;;;;;;;4.14;56.48;100512.06;5024952;28;20057;-83
2023/04/05 08:20:12;;;;;;;9.18;5.30;;;;;;;4.23;55.93;100518.66;5000214;28;20044;-83
2023/04/05 08:22:38;;;;;;;10.55;5.57;;;;;;;4.21;56.15;100512.63;5006317;28;20082;-83
2023/04/05 08:25:06;;;;;;;9.13;5.22;;;;;;;4.21;56.02;100518.72;5009750;28;20091;-83
2023/04/05 08:27:32;;;;;;;11.38;5.60;;;;;;;4.28;56.00;100511.38;5010765;28;20049;-83
2023/04/05 08:29:59;;;;;;;8.35;5.20;;;;;;;4.28;55.60;100509.59;5011323;28;20157;-83
2023/04/05 08:32:26;;;;;;;8.02;5.25;;;;;;;4.29;55.99;100498.16;5003044;28;20050;-82
2023/04/05 08:34:53;;;;;;;10.90;5.38;;;;;;;4.37;55.64;100502.16;5025286;28;20069;-83
2023/04/05 08:37:19;;;;;;;12.63;4.93;;;;;;;4.34;54.94;100503.16;5018568;28;20051;-83
2023/04/05 08:39:46;;;;;;;11.40;5.25;;;;;;;4.45;55.53;100508.75;4981831;28;20677;-84
2023/04/05 08:42:18;;;;;;;7.65;4.55;;;;;;;4.50;55.36;100506.72;5025653;28;20053;-83
2023/04/05 08:44:45;;;;;;;8.23;4.88;;;;;;;4.52;55.47;100507.47;4993222;28;20091;-83
2023/04/05 08:47:17;;;;;;;8.30;4.70;;;;;;;4.53;55.36;100509.19;5012394;28;20042;-83
2023/04/05 08:49:44;;;;;;;6.07;4.10;;;;;;;4.62;55.95;100509.63;5027719;28;20050;-83
2023/04/05 08:52:11;;;;;;;8.77;5.07;;;;;;;4.67;55.85;100507.59;4993259;28;20057;-83
2023/04/05 08:54:38;;;;;;;8.48;4.68;;;;;;;4.71;55.54;100498.63;5018902;28;20041;-83
2023/04/05 08:57:06;;;;;;;9.75;4.45;;;;;;;4.74;55.09;100499.28;4980458;28;20485;-84
2023/04/05 08:59:36;;;;;;;10.25;5.10;;;;;;;4.78;55.29;100492.06;4999412;28;20042;-83
2023/04/05 09:02:18;;;;;;;6.75;4.53;;;;;;;4.74;54.33;100494.03;4995054;28;20064;-83
2023/04/05 09:04:46;;;;;;;8.98;4.75;;;;;;;4.82;55.26;100492.78;5027960;28;20054;-83
2023/04/05 09:07:13;;;;;;;9.82;5.40;;;;;;;4.86;55.01;100495.16;5012625;28;20064;-83
2023/04/05 09:09:44;;;;;;;7.00;4.30;;;;;;;4.88;55.00;100482.75;5026741;28;20122;-84
2023/04/05 09:12:10;;;;;;;6.07;4.00;;;;;;;4.92;55.09;100492.19;5024597;28;20510;-83
2023/04/05 09:14:38;;;;;;;6.95;4.43;;;;;;;4.95;55.24;100492.00;5007454;28;20077;-83
2023/04/05 09:17:05;;;;;;;5.93;4.43;;;;;;;4.98;55.05;100489.19;4988013;28;20366;-83
2023/04/05 09:19:32;;;;;;;9.40;4.85;;;;;;;5.00;54.73;100487.34;5012518;28;20138;-83
2023/04/05 09:22:08;;;;;;;6.65;4.50;;;;;;;5.02;54.14;100483.78;5012978;28;20053;-83
2023/04/05 09:24:42;;;;;;;7.25;4.75;;;;;;;5.02;54.21;100484.63;4986539;28;20049;-83
2023/04/05 09:27:17;;;;;;;6.18;4.22;;;;;;;5.07;54.22;100482.59;4993281;28;20041;-83
2023/04/05 09:29:49;;;;;;;6.53;4.18;;;;;;;5.12;54.82;100483.19;4997171;28;20049;-83
2023/04/05 09:32:20;;;;;;;6.90;4.28;;;;;;;5.15;54.51;100469.00;5026639;28;20607;-83
2023/04/05 09:34:47;;;;;;;8.00;5.18;;;;;;;5.22;54.15;100475.63;5006695;28;20551;-82
2023/04/05 09:37:52;;;;;;;7.47;4.45;;;;;;;5.21;53.52;100469.50;5018900;28;20053;-83
2023/04/05 09:40:19;;;;;;;8.05;4.50;;;;;;;5.28;53.68;100471.81;4962215;28;20053;-82
2023/04/05 09:42:46;;;;;;;9.65;4.85;;;;;;;5.26;52.42;100463.13;4985217;28;20056;-84
2023/04/05 09:45:14;;;;;;;8.02;5.43;;;;;;;5.30;52.89;100465.53;4986184;28;20053;-83
2023/04/05 09:47:56;;;;;;;18.02;5.35;;;;;;;5.33;52.99;100469.75;5026297;28;20053;-83
2023/04/05 09:50:23;;;;;;;6.72;4.93;;;;;;;5.34;52.97;100464.41;5026404;28;20077;-83
2023/04/05 09:53:05;;;;;;;10.52;4.90;;;;;;;5.35;51.73;100460.84;5012372;28;20091;-82
2023/04/05 09:55:32;;;;;;;7.30;4.88;;;;;;;5.48;52.72;100466.25;4978707;28;20107;-82
2023/04/05 09:57:59;;;;;;;7.88;5.40;;;;;;;5.48;52.55;100462.78;5008788;28;20042;-83
2023/04/05 10:00:25;;;;;;;10.48;5.43;;;;;;;5.51;52.52;100468.72;4999035;28;20555;-83
2023/04/05 10:02:54;;;;;;;8.20;5.13;;;;;;;5.54;52.35;100465.91;5025420;28;21489;-83
2023/04/05 10:05:26;;;;;;;10.27;4.88;;;;;;;5.57;51.88;100475.41;4985561;28;20124;-83
2023/04/05 10:07:54;;;;;;;7.10;4.50;;;;;;;5.60;52.66;100468.19;5022971;28;20045;-82
2023/04/05 10:10:22;;;;;;;7.25;5.00;;;;;;;5.62;52.15;100465.44;5013784;28;20045;-83
2023/04/05 10:12:49;;;;;;;10.05;4.90;;;;;;;5.60;52.16;100460.28;4973539;28;20046;-84
2023/04/05 10:15:17;;;;;;;7.75;4.95;;;;;;;5.58;51.77;100458.69;5025612;28;20400;-83
2023/04/05 10:18:03;;;;;;;8.75;5.55;;;;;;;5.54;50.68;100462.41;4981694;28;20497;-83
2023/04/05 10:20:32;;;;;;;9.32;5.63;;;;;;;5.59;50.78;100458.56;5022979;28;20048;-83
2023/04/05 10:23:12;;;;;;;10.98;6.00;;;;;;;5.59;50.35;100453.31;4993097;28;20046;-83
2023/04/05 10:25:50;;;;;;;11.65;5.47;;;;;;;5.60;50.75;100452.38;5026628;28;20119;-83
2023/04/05 10:28:24;;;;;;;13.57;5.43;;;;;;;5.67;50.98;100450.22;4990531;28;20066;-83
2023/04/05 10:30:54;;;;;;;10.20;6.23;;;;;;;5.70;51.36;100446.56;4996791;28;20045;-83
2023/04/05 10:33:30;;;;;;;8.40;5.32;;;;;;;5.74;50.53;100454.22;5026224;28;20069;-83
2023/04/05 10:36:00;;;;;;;10.23;5.07;;;;;;;5.75;49.02;100450.66;5000880;28;20124;-83
2023/04/05 10:38:28;;;;;;;8.88;5.70;;;;;;;5.74;50.03;100446.31;5008440;28;20049;-83
2023/04/05 10:41:21;;;;;;;7.50;5.63;;;;;;;5.70;47.79;100446.56;5025565;28;20104;-83
2023/04/05 10:43:48;;;;;;;12.02;6.40;;;;;;;5.72;49.76;100442.91;4979361;28;20042;-83
2023/04/05 10:46:19;;;;;;;10.23;5.68;;;;;;;5.75;50.09;100437.47;5012518;28;20045;-83
2023/04/05 10:49:00;;;;;;;10.57;5.97;;;;;;;5.75;48.92;100436.59;5025518;28;20133;-83
2023/04/05 10:51:28;;;;;;;8.65;5.57;;;;;;;5.79;49.96;100436.34;5013107;28;20141;-83
2023/04/05 10:53:55;;;;;;;20.70;6.68;;;;;;;5.76;49.22;100439.16;5010672;28;20066;-83
2023/04/05 10:56:23;;;;;;;11.20;5.50;;;;;;;5.84;49.14;100431.63;5000923;28;20065;-82
2023/04/05 10:58:51;;;;;;;9.70;5.57;;;;;;;5.86;49.55;100440.31;4979956;28;20049;-83
2023/04/05 11:01:19;;;;;;;10.88;5.95;;;;;;;5.90;49.96;100434.84;5012534;28;20595;-83
2023/04/05 11:03:48;;;;;;;11.50;6.20;;;;;;;5.92;49.76;100428.56;4989919;28;20053;-83
2023/04/05 11:06:31;;;;;;;9.32;6.32;;;;;;;5.92;48.77;100427.72;5022261;28;20049;-82
2023/04/05 11:09:10;;;;;;;8.57;5.80;;;;;;;5.90;48.56;100424.31;4993755;28;20128;-83
2023/04/05 11:11:38;;;;;;;9.32;5.82;;;;;;;5.94;49.28;100425.88;4999531;28;20124;-82
2023/04/05 11:14:25;;;;;;;9.18;5.72;;;;;;;5.94;47.71;100421.44;4992273;28;20509;-83
2023/04/05 11:16:55;;;;;;;13.00;6.07;;;;;;;6.02;49.20;100424.44;4993964;28;20045;-83
2023/04/05 11:19:44;;;;;;;11.68;6.00;;;;;;;6.03;47.72;100425.28;5023831;28;20065;-83
2023/04/05 11:22:11;;;;;;;9.30;5.93;;;;;;;6.11;49.58;100420.44;5008914;28;20107;-83
2023/04/05 11:24:52;;;;;;;11.60;6.22;;;;;;;6.11;48.92;100423.06;5009873;28;20057;-82
2023/04/05 11:27:32;;;;;;;11.63;6.40;;;;;;;6.18;49.74;100420.88;4987805;28;20355;-83
2023/04/05 11:30:00;;;;;;;9.80;6.47;;;;;;;6.29;49.82;100423.75;4991895;28;20497;-82
2023/04/05 11:32:37;;;;;;;9.50;5.93;;;;;;;6.25;47.44;100422.22;5006126;28;20065;-83
2023/04/05 11:35:06;;;;;;;11.70;6.82;;;;;;;6.29;49.09;100414.03;4994278;28;20046;-83
2023/04/05 11:37:51;;;;;;;11.52;5.97;;;;;;;6.28;48.21;100412.34;4984956;28;20061;-83
2023/04/05 11:40:39;;;;;;;11.63;5.90;;;;;;;6.32;48.26;100415.63;4994860;28;20404;-83
2023/04/05 11:43:09;;;;;;;9.23;6.22;;;;;;;6.34;46.64;100412.91;5022800;28;20065;-83
2023/04/05 11:45:37;;;;;;;9.52;5.60;;;;;;;6.40;48.83;100401.97;5010583;28;20546;-83
2023/04/05 11:48:09;;;;;;;11.30;5.78;;;;;;;6.29;47.77;100392.94;5013012;28;20038;-83